sensor_id;sensor_type;location;lat;lon;timestamp;P1;durP1;ratioP1;P2;durP2;ratioP2
29412;SDS011;16389;50.126;8.450;2022-09-20T00:02:18;0.93;;;0.40;;
29412;SDS011;16389;50.126;8.450;2022-09-20T00:04:44;0.93;;;0.30;;
29412;SDS011;16389;50.126;8.450;2022-09-20T00:07:12;0.60;;;0.47;;
29412;SDS011;16389;50.126;8.450;2022-09-20T00:09:38;0.70;;;0.50;;
29412;SDS011;16389;50.126;8.450;2022-09-20T00:12:05;0.88;;;0.52;;
29412;SDS011;16389;50.126;8.450;2022-09-20T00:14:30;0.65;;;0.30;;
29412;SDS011;16389;50.126;8.450;2022-09-20T00:16:56;1.02;;;0.50;;
29412;SDS011;16389;50.126;8.450;2022-09-20T00:19:21;1.92;;;0.50;;
29412;SDS011;16389;50.126;8.450;2022-09-20T00:21:47;2.50;;;0.68;;
29412;SDS011;16389;50.126;8.450;2022-09-20T00:24:13;2.00;;;0.60;;
29412;SDS011;16389;50.126;8.450;2022-09-20T00:26:38;0.90;;;0.30;;
29412;SDS011;16389;50.126;8.450;2022-09-20T00:29:04;0.70;;;0.40;;
29412;SDS011;16389;50.126;8.450;2022-09-20T00:31:30;0.50;;;0.47;;
29412;SDS011;16389;50.126;8.450;2022-09-20T00:33:57;0.35;;;0.30;;
29412;SDS011;16389;50.126;8.450;2022-09-20T00:37:01;3.20;;;0.40;;
29412;SDS011;16389;50.126;8.450;2022-09-20T00:39:26;0.77;;;0.50;;
29412;SDS011;16389;50.126;8.450;2022-09-20T00:41:52;1.45;;;0.50;;
29412;SDS011;16389;50.126;8.450;2022-09-20T00:44:40;3.75;;;0.30;;
29412;SDS011;16389;50.126;8.450;2022-09-20T00:50:51;2.83;;;1.27;;
29412;SDS011;16389;50.126;8.450;2022-09-20T00:55:26;1.75;;;0.40;;
29412;SDS011;16389;50.126;8.450;2022-09-20T00:57:52;0.63;;;0.35;;
29412;SDS011;16389;50.126;8.450;2022-09-20T01:00:18;3.60;;;0.50;;
29412;SDS011;16389;50.126;8.450;2022-09-20T01:02:46;0.40;;;0.40;;
29412;SDS011;16389;50.126;8.450;2022-09-20T01:05:14;1.13;;;0.80;;
29412;SDS011;16389;50.126;8.450;2022-09-20T01:07:42;1.95;;;0.60;;
29412;SDS011;16389;50.126;8.450;2022-09-20T01:10:11;2.38;;;0.60;;
29412;SDS011;16389;50.126;8.450;2022-09-20T01:12:36;0.88;;;0.60;;
29412;SDS011;16389;50.126;8.450;2022-09-20T01:15:05;1.50;;;1.30;;
29412;SDS011;16389;50.126;8.450;2022-09-20T01:17:33;1.50;;;0.38;;
29412;SDS011;16389;50.126;8.450;2022-09-20T01:25:42;0.90;;;0.40;;
29412;SDS011;16389;50.126;8.450;2022-09-20T01:28:28;3.42;;;0.50;;
29412;SDS011;16389;50.126;8.450;2022-09-20T01:39:21;1.70;;;1.25;;
29412;SDS011;16389;50.126;8.450;2022-09-20T01:41:56;3.60;;;0.93;;
29412;SDS011;16389;50.126;8.450;2022-09-20T02:13:03;1.20;;;0.55;;
29412;SDS011;16389;50.126;8.450;2022-09-20T02:32:18;1.73;;;0.63;;
29412;SDS011;16389;50.126;8.450;2022-09-20T02:40:53;0.32;;;0.32;;
29412;SDS011;16389;50.126;8.450;2022-09-20T02:43:36;2.83;;;0.77;;
29412;SDS011;16389;50.126;8.450;2022-09-20T02:51:35;0.40;;;0.40;;
29412;SDS011;16389;50.126;8.450;2022-09-20T02:59:40;1.48;;;0.50;;
29412;SDS011;16389;50.126;8.450;2022-09-20T03:02:14;1.13;;;0.50;;
29412;SDS011;16389;50.126;8.450;2022-09-20T03:05:04;0.63;;;0.63;;
29412;SDS011;16389;50.126;8.450;2022-09-20T03:13:21;1.67;;;0.90;;
29412;SDS011;16389;50.126;8.450;2022-09-20T03:21:50;9.23;;;1.08;;
29412;SDS011;16389;50.126;8.450;2022-09-20T03:32:44;2.75;;;2.10;;
29412;SDS011;16389;50.126;8.450;2022-09-20T03:46:24;3.60;;;1.75;;
29412;SDS011;16389;50.126;8.450;2022-09-20T03:48:58;5.97;;;1.33;;
29412;SDS011;16389;50.126;8.450;2022-09-20T03:52:06;5.90;;;1.55;;
29412;SDS011;16389;50.126;8.450;2022-09-20T03:57:42;7.90;;;1.15;;
29412;SDS011;16389;50.126;8.450;2022-09-20T04:11:58;7.95;;;0.88;;
29412;SDS011;16389;50.126;8.450;2022-09-20T04:17:24;4.93;;;0.85;;
29412;SDS011;16389;50.126;8.450;2022-09-20T04:20:35;1.45;;;0.80;;
29412;SDS011;16389;50.126;8.450;2022-09-20T04:23:17;2.88;;;1.15;;
29412;SDS011;16389;50.126;8.450;2022-09-20T04:25:45;1.58;;;1.10;;
29412;SDS011;16389;50.126;8.450;2022-09-20T04:28:23;10.25;;;1.15;;
29412;SDS011;16389;50.126;8.450;2022-09-20T04:30:55;5.13;;;0.95;;
29412;SDS011;16389;50.126;8.450;2022-09-20T04:33:36;1.23;;;0.70;;
29412;SDS011;16389;50.126;8.450;2022-09-20T04:36:12;1.13;;;0.95;;
29412;SDS011;16389;50.126;8.450;2022-09-20T04:39:02;2.05;;;1.45;;
29412;SDS011;16389;50.126;8.450;2022-09-20T04:41:55;2.10;;;0.75;;
29412;SDS011;16389;50.126;8.450;2022-09-20T04:47:52;5.55;;;1.15;;
29412;SDS011;16389;50.126;8.450;2022-09-20T04:56:36;2.30;;;1.30;;
29412;SDS011;16389;50.126;8.450;2022-09-20T05:03:10;4.22;;;3.03;;
29412;SDS011;16389;50.126;8.450;2022-09-20T05:17:35;4.68;;;1.20;;
29412;SDS011;16389;50.126;8.450;2022-09-20T05:23:41;1.67;;;1.58;;
29412;SDS011;16389;50.126;8.450;2022-09-20T05:26:45;3.92;;;1.10;;
29412;SDS011;16389;50.126;8.450;2022-09-20T05:29:34;1.88;;;1.35;;
29412;SDS011;16389;50.126;8.450;2022-09-20T06:14:53;4.93;;;1.55;;
29412;SDS011;16389;50.126;8.450;2022-09-20T06:20:19;7.18;;;2.30;;
29412;SDS011;16389;50.126;8.450;2022-09-20T06:22:55;3.50;;;1.42;;
29412;SDS011;16389;50.126;8.450;2022-09-20T06:28:15;2.35;;;1.38;;
29412;SDS011;16389;50.126;8.450;2022-09-20T06:30:43;4.10;;;2.13;;
29412;SDS011;16389;50.126;8.450;2022-09-20T06:33:13;5.80;;;2.40;;
29412;SDS011;16389;50.126;8.450;2022-09-20T06:41:15;2.88;;;1.60;;
29412;SDS011;16389;50.126;8.450;2022-09-20T06:44:01;2.03;;;1.23;;
29412;SDS011;16389;50.126;8.450;2022-09-20T06:46:31;2.13;;;1.30;;
29412;SDS011;16389;50.126;8.450;2022-09-20T06:48:59;4.97;;;2.22;;
29412;SDS011;16389;50.126;8.450;2022-09-20T06:51:25;13.32;;;1.80;;
29412;SDS011;16389;50.126;8.450;2022-09-20T06:53:53;2.63;;;1.70;;
29412;SDS011;16389;50.126;8.450;2022-09-20T06:56:22;3.38;;;2.17;;
29412;SDS011;16389;50.126;8.450;2022-09-20T06:58:50;5.60;;;2.17;;
29412;SDS011;16389;50.126;8.450;2022-09-20T07:01:17;3.05;;;1.92;;
29412;SDS011;16389;50.126;8.450;2022-09-20T07:03:43;2.58;;;2.33;;
29412;SDS011;16389;50.126;8.450;2022-09-20T07:06:09;9.77;;;1.23;;
29412;SDS011;16389;50.126;8.450;2022-09-20T07:08:35;4.03;;;1.75;;
29412;SDS011;16389;50.126;8.450;2022-09-20T07:11:05;7.18;;;1.30;;
29412;SDS011;16389;50.126;8.450;2022-09-20T07:13:33;2.15;;;1.48;;
29412;SDS011;16389;50.126;8.450;2022-09-20T07:16:03;1.50;;;1.10;;
29412;SDS011;16389;50.126;8.450;2022-09-20T07:18:32;4.03;;;1.88;;
29412;SDS011;16389;50.126;8.450;2022-09-20T07:20:59;1.85;;;1.58;;
29412;SDS011;16389;50.126;8.450;2022-09-20T07:23:26;2.72;;;1.75;;
29412;SDS011;16389;50.126;8.450;2022-09-20T07:25:53;2.40;;;1.45;;
29412;SDS011;16389;50.126;8.450;2022-09-20T07:28:22;4.95;;;2.95;;
29412;SDS011;16389;50.126;8.450;2022-09-20T07:30:48;3.55;;;1.42;;
29412;SDS011;16389;50.126;8.450;2022-09-20T07:33:14;3.28;;;2.22;;
29412;SDS011;16389;50.126;8.450;2022-09-20T07:35:49;3.55;;;1.85;;
29412;SDS011;16389;50.126;8.450;2022-09-20T07:38:16;4.28;;;1.45;;
29412;SDS011;16389;50.126;8.450;2022-09-20T07:40:42;2.38;;;1.27;;
29412;SDS011;16389;50.126;8.450;2022-09-20T07:43:10;5.47;;;1.80;;
29412;SDS011;16389;50.126;8.450;2022-09-20T07:45:36;3.53;;;1.70;;
29412;SDS011;16389;50.126;8.450;2022-09-20T07:48:07;2.90;;;2.38;;
29412;SDS011;16389;50.126;8.450;2022-09-20T07:50:34;2.33;;;1.50;;
29412;SDS011;16389;50.126;8.450;2022-09-20T07:53:00;3.63;;;2.13;;
29412;SDS011;16389;50.126;8.450;2022-09-20T07:55:25;8.32;;;1.85;;
29412;SDS011;16389;50.126;8.450;2022-09-20T07:57:51;1.83;;;1.20;;
29412;SDS011;16389;50.126;8.450;2022-09-20T08:00:19;6.28;;;2.50;;
29412;SDS011;16389;50.126;8.450;2022-09-20T08:02:45;4.13;;;1.70;;
29412;SDS011;16389;50.126;8.450;2022-09-20T08:05:10;1.45;;;1.27;;
29412;SDS011;16389;50.126;8.450;2022-09-20T08:07:36;5.65;;;1.92;;
29412;SDS011;16389;50.126;8.450;2022-09-20T08:10:03;4.10;;;2.03;;
29412;SDS011;16389;50.126;8.450;2022-09-20T08:12:29;2.65;;;1.80;;
29412;SDS011;16389;50.126;8.450;2022-09-20T08:14:56;5.85;;;1.33;;
29412;SDS011;16389;50.126;8.450;2022-09-20T08:17:23;3.17;;;1.85;;
29412;SDS011;16389;50.126;8.450;2022-09-20T08:19:49;3.30;;;1.23;;
29412;SDS011;16389;50.126;8.450;2022-09-20T08:22:17;2.40;;;1.70;;
29412;SDS011;16389;50.126;8.450;2022-09-20T08:24:43;4.03;;;2.47;;
29412;SDS011;16389;50.126;8.450;2022-09-20T08:27:08;6.18;;;1.80;;
29412;SDS011;16389;50.126;8.450;2022-09-20T08:29:34;3.20;;;1.85;;
29412;SDS011;16389;50.126;8.450;2022-09-20T08:32:00;4.65;;;1.30;;
29412;SDS011;16389;50.126;8.450;2022-09-20T08:34:27;11.90;;;1.30;;
29412;SDS011;16389;50.126;8.450;2022-09-20T08:36:52;1.90;;;1.30;;
29412;SDS011;16389;50.126;8.450;2022-09-20T08:39:20;2.15;;;1.27;;
29412;SDS011;16389;50.126;8.450;2022-09-20T08:41:50;2.35;;;1.30;;
29412;SDS011;16389;50.126;8.450;2022-09-20T08:47:08;2.35;;;1.20;;
29412;SDS011;16389;50.126;8.450;2022-09-20T08:49:48;5.22;;;1.33;;
29412;SDS011;16389;50.126;8.450;2022-09-20T08:52:18;2.25;;;1.10;;
29412;SDS011;16389;50.126;8.450;2022-09-20T08:54:49;2.53;;;1.35;;
29412;SDS011;16389;50.126;8.450;2022-09-20T08:57:16;1.45;;;1.00;;
29412;SDS011;16389;50.126;8.450;2022-09-20T08:59:44;1.27;;;0.73;;
29412;SDS011;16389;50.126;8.450;2022-09-20T09:02:14;2.15;;;0.95;;
29412;SDS011;16389;50.126;8.450;2022-09-20T09:04:41;4.15;;;1.63;;
29412;SDS011;16389;50.126;8.450;2022-09-20T09:07:09;14.27;;;2.00;;
29412;SDS011;16389;50.126;8.450;2022-09-20T09:09:39;1.65;;;0.88;;
29412;SDS011;16389;50.126;8.450;2022-09-20T09:12:21;2.15;;;1.35;;
29412;SDS011;16389;50.126;8.450;2022-09-20T09:14:50;7.70;;;1.75;;
29412;SDS011;16389;50.126;8.450;2022-09-20T09:17:22;1.83;;;1.15;;
29412;SDS011;16389;50.126;8.450;2022-09-20T09:22:24;2.08;;;0.80;;
29412;SDS011;16389;50.126;8.450;2022-09-20T09:30:32;2.88;;;1.50;;
29412;SDS011;16389;50.126;8.450;2022-09-20T09:35:53;3.53;;;0.70;;
29412;SDS011;16389;50.126;8.450;2022-09-20T09:38:20;8.02;;;1.00;;
29412;SDS011;16389;50.126;8.450;2022-09-20T09:40:49;1.75;;;0.90;;
29412;SDS011;16389;50.126;8.450;2022-09-20T09:43:22;5.40;;;0.70;;
29412;SDS011;16389;50.126;8.450;2022-09-20T09:45:53;6.90;;;1.00;;
29412;SDS011;16389;50.126;8.450;2022-09-20T09:51:11;2.85;;;0.65;;
29412;SDS011;16389;50.126;8.450;2022-09-20T09:53:39;1.02;;;0.50;;
29412;SDS011;16389;50.126;8.450;2022-09-20T09:59:07;2.33;;;0.45;;
29412;SDS011;16389;50.126;8.450;2022-09-20T10:04:47;2.45;;;0.60;;
29412;SDS011;16389;50.126;8.450;2022-09-20T10:10:28;1.10;;;0.70;;
29412;SDS011;16389;50.126;8.450;2022-09-20T10:13:28;1.90;;;0.63;;
29412;SDS011;16389;50.126;8.450;2022-09-20T10:15:57;3.72;;;1.17;;
29412;SDS011;16389;50.126;8.450;2022-09-20T10:23:43;13.20;;;0.90;;
29412;SDS011;16389;50.126;8.450;2022-09-20T10:32:08;1.05;;;0.60;;
29412;SDS011;16389;50.126;8.450;2022-09-20T10:37:50;4.20;;;0.80;;
29412;SDS011;16389;50.126;8.450;2022-09-20T10:46:52;1.30;;;0.70;;
29412;SDS011;16389;50.126;8.450;2022-09-20T10:49:40;1.05;;;0.50;;
29412;SDS011;16389;50.126;8.450;2022-09-20T10:57:41;2.55;;;1.13;;
29412;SDS011;16389;50.126;8.450;2022-09-20T11:00:21;1.75;;;0.80;;
29412;SDS011;16389;50.126;8.450;2022-09-20T11:08:48;1.50;;;0.95;;
29412;SDS011;16389;50.126;8.450;2022-09-20T11:11:20;4.63;;;0.77;;
29412;SDS011;16389;50.126;8.450;2022-09-20T11:14:00;1.50;;;0.70;;
29412;SDS011;16389;50.126;8.450;2022-09-20T11:16:38;1.17;;;0.70;;
29412;SDS011;16389;50.126;8.450;2022-09-20T11:19:25;9.07;;;0.88;;
29412;SDS011;16389;50.126;8.450;2022-09-20T11:24:36;2.33;;;0.90;;
29412;SDS011;16389;50.126;8.450;2022-09-20T11:27:15;8.75;;;1.05;;
29412;SDS011;16389;50.126;8.450;2022-09-20T11:29:57;3.33;;;0.70;;
29412;SDS011;16389;50.126;8.450;2022-09-20T11:32:30;2.05;;;0.80;;
29412;SDS011;16389;50.126;8.450;2022-09-20T11:37:52;1.48;;;0.98;;
29412;SDS011;16389;50.126;8.450;2022-09-20T11:40:31;1.10;;;0.70;;
29412;SDS011;16389;50.126;8.450;2022-09-20T11:43:03;2.28;;;0.57;;
29412;SDS011;16389;50.126;8.450;2022-09-20T11:45:31;1.20;;;0.70;;
29412;SDS011;16389;50.126;8.450;2022-09-20T11:51:44;0.85;;;0.85;;
29412;SDS011;16389;50.126;8.450;2022-09-20T11:57:27;2.03;;;0.70;;
29412;SDS011;16389;50.126;8.450;2022-09-20T11:59:56;0.70;;;0.70;;
29412;SDS011;16389;50.126;8.450;2022-09-20T12:03:20;3.83;;;0.70;;
29412;SDS011;16389;50.126;8.450;2022-09-20T12:13:18;1.02;;;0.60;;
29412;SDS011;16389;50.126;8.450;2022-09-20T12:15:55;0.75;;;0.60;;
29412;SDS011;16389;50.126;8.450;2022-09-20T12:18:35;1.30;;;0.60;;
29412;SDS011;16389;50.126;8.450;2022-09-20T12:21:16;1.25;;;0.80;;
29412;SDS011;16389;50.126;8.450;2022-09-20T12:23:45;2.05;;;0.73;;
29412;SDS011;16389;50.126;8.450;2022-09-20T12:26:35;0.50;;;0.50;;
29412;SDS011;16389;50.126;8.450;2022-09-20T12:29:07;1.70;;;1.13;;
29412;SDS011;16389;50.126;8.450;2022-09-20T12:31:54;5.65;;;0.90;;
29412;SDS011;16389;50.126;8.450;2022-09-20T12:39:16;2.45;;;0.98;;
29412;SDS011;16389;50.126;8.450;2022-09-20T12:47:18;1.08;;;0.40;;
29412;SDS011;16389;50.126;8.450;2022-09-20T12:50:14;1.55;;;0.57;;
29412;SDS011;16389;50.126;8.450;2022-09-20T12:52:59;1.40;;;0.50;;
29412;SDS011;16389;50.126;8.450;2022-09-20T12:58:18;0.60;;;0.52;;
29412;SDS011;16389;50.126;8.450;2022-09-20T13:03:34;1.38;;;0.77;;
29412;SDS011;16389;50.126;8.450;2022-09-20T13:11:21;10.05;;;0.60;;
29412;SDS011;16389;50.126;8.450;2022-09-20T13:19:11;1.50;;;0.70;;
29412;SDS011;16389;50.126;8.450;2022-09-20T13:21:52;2.40;;;0.52;;
29412;SDS011;16389;50.126;8.450;2022-09-20T13:24:29;1.60;;;0.70;;
29412;SDS011;16389;50.126;8.450;2022-09-20T13:27:02;0.75;;;0.50;;
29412;SDS011;16389;50.126;8.450;2022-09-20T13:29:33;1.15;;;0.40;;
29412;SDS011;16389;50.126;8.450;2022-09-20T13:32:14;0.70;;;0.63;;
29412;SDS011;16389;50.126;8.450;2022-09-20T13:37:31;0.50;;;0.50;;
29412;SDS011;16389;50.126;8.450;2022-09-20T13:39:58;2.50;;;0.52;;
29412;SDS011;16389;50.126;8.450;2022-09-20T13:42:24;1.15;;;0.57;;
29412;SDS011;16389;50.126;8.450;2022-09-20T13:44:53;0.70;;;0.57;;
29412;SDS011;16389;50.126;8.450;2022-09-20T13:47:26;4.53;;;1.10;;
29412;SDS011;16389;50.126;8.450;2022-09-20T13:50:00;0.70;;;0.50;;
29412;SDS011;16389;50.126;8.450;2022-09-20T13:52:28;0.65;;;0.40;;
29412;SDS011;16389;50.126;8.450;2022-09-20T13:54:55;7.95;;;0.85;;
29412;SDS011;16389;50.126;8.450;2022-09-20T13:57:22;1.40;;;0.55;;
29412;SDS011;16389;50.126;8.450;2022-09-20T13:59:52;1.40;;;0.70;;
29412;SDS011;16389;50.126;8.450;2022-09-20T14:04:50;1.08;;;0.60;;
29412;SDS011;16389;50.126;8.450;2022-09-20T14:07:20;3.80;;;0.60;;
29412;SDS011;16389;50.126;8.450;2022-09-20T14:09:50;1.45;;;0.50;;
29412;SDS011;16389;50.126;8.450;2022-09-20T14:12:16;1.20;;;0.75;;
29412;SDS011;16389;50.126;8.450;2022-09-20T14:14:43;0.40;;;0.40;;
29412;SDS011;16389;50.126;8.450;2022-09-20T14:17:10;0.45;;;0.45;;
29412;SDS011;16389;50.126;8.450;2022-09-20T14:19:39;4.40;;;0.90;;
29412;SDS011;16389;50.126;8.450;2022-09-20T14:22:09;3.53;;;0.52;;
29412;SDS011;16389;50.126;8.450;2022-09-20T14:24:53;1.65;;;0.40;;
29412;SDS011;16389;50.126;8.450;2022-09-20T14:27:28;0.75;;;0.30;;
29412;SDS011;16389;50.126;8.450;2022-09-20T14:29:57;0.50;;;0.50;;
29412;SDS011;16389;50.126;8.450;2022-09-20T14:35:24;1.42;;;0.30;;
29412;SDS011;16389;50.126;8.450;2022-09-20T14:38:01;0.20;;;0.20;;
29412;SDS011;16389;50.126;8.450;2022-09-20T14:40:39;0.20;;;0.20;;
29412;SDS011;16389;50.126;8.450;2022-09-20T14:43:22;0.30;;;0.30;;
29412;SDS011;16389;50.126;8.450;2022-09-20T14:46:00;1.50;;;0.30;;
29412;SDS011;16389;50.126;8.450;2022-09-20T14:48:32;0.70;;;0.30;;
29412;SDS011;16389;50.126;8.450;2022-09-20T14:53:38;1.27;;;0.95;;
29412;SDS011;16389;50.126;8.450;2022-09-20T14:58:29;1.10;;;0.57;;
29412;SDS011;16389;50.126;8.450;2022-09-20T15:01:03;3.72;;;0.50;;
29412;SDS011;16389;50.126;8.450;2022-09-20T15:04:04;0.22;;;0.20;;
29412;SDS011;16389;50.126;8.450;2022-09-20T15:06:39;0.35;;;0.30;;
29412;SDS011;16389;50.126;8.450;2022-09-20T15:09:04;0.40;;;0.30;;
29412;SDS011;16389;50.126;8.450;2022-09-20T15:11:30;0.60;;;0.30;;
29412;SDS011;16389;50.126;8.450;2022-09-20T15:13:56;0.40;;;0.20;;
29412;SDS011;16389;50.126;8.450;2022-09-20T15:16:21;0.32;;;0.32;;
29412;SDS011;16389;50.126;8.450;2022-09-20T15:18:47;1.50;;;0.35;;
29412;SDS011;16389;50.126;8.450;2022-09-20T15:21:12;0.30;;;0.30;;
29412;SDS011;16389;50.126;8.450;2022-09-20T15:23:38;0.28;;;0.28;;
29412;SDS011;16389;50.126;8.450;2022-09-20T15:26:04;0.20;;;0.20;;
29412;SDS011;16389;50.126;8.450;2022-09-20T15:28:32;0.40;;;0.30;;
29412;SDS011;16389;50.126;8.450;2022-09-20T15:30:58;2.90;;;0.45;;
29412;SDS011;16389;50.126;8.450;2022-09-20T15:33:23;0.50;;;0.20;;
29412;SDS011;16389;50.126;8.450;2022-09-20T15:35:49;0.20;;;0.20;;
29412;SDS011;16389;50.126;8.450;2022-09-20T15:38:16;2.20;;;0.50;;
29412;SDS011;16389;50.126;8.450;2022-09-20T15:40:43;0.30;;;0.30;;
29412;SDS011;16389;50.126;8.450;2022-09-20T15:43:12;0.50;;;0.20;;
29412;SDS011;16389;50.126;8.450;2022-09-20T15:45:47;0.55;;;0.55;;
29412;SDS011;16389;50.126;8.450;2022-09-20T15:48:16;0.20;;;0.20;;
29412;SDS011;16389;50.126;8.450;2022-09-20T15:50:58;0.20;;;0.20;;
29412;SDS011;16389;50.126;8.450;2022-09-20T15:53:26;0.77;;;0.32;;
29412;SDS011;16389;50.126;8.450;2022-09-20T15:55:57;0.10;;;0.10;;
29412;SDS011;16389;50.126;8.450;2022-09-20T15:58:30;0.70;;;0.20;;
29412;SDS011;16389;50.126;8.450;2022-09-20T16:01:02;0.30;;;0.30;;
29412;SDS011;16389;50.126;8.450;2022-09-20T16:03:32;1.17;;;0.28;;
29412;SDS011;16389;50.126;8.450;2022-09-20T16:05:59;0.80;;;0.30;;
29412;SDS011;16389;50.126;8.450;2022-09-20T16:08:29;1.55;;;0.43;;
29412;SDS011;16389;50.126;8.450;2022-09-20T16:10:59;0.55;;;0.47;;
29412;SDS011;16389;50.126;8.450;2022-09-20T16:13:25;0.52;;;0.40;;
29412;SDS011;16389;50.126;8.450;2022-09-20T16:15:54;2.80;;;0.50;;
29412;SDS011;16389;50.126;8.450;2022-09-20T16:21:09;0.40;;;0.30;;
29412;SDS011;16389;50.126;8.450;2022-09-20T16:23:39;1.15;;;0.50;;
29412;SDS011;16389;50.126;8.450;2022-09-20T16:26:08;0.35;;;0.28;;
29412;SDS011;16389;50.126;8.450;2022-09-20T16:28:40;0.57;;;0.32;;
29412;SDS011;16389;50.126;8.450;2022-09-20T16:31:26;0.35;;;0.35;;
29412;SDS011;16389;50.126;8.450;2022-09-20T16:33:57;0.52;;;0.43;;
29412;SDS011;16389;50.126;8.450;2022-09-20T16:36:23;0.88;;;0.65;;
29412;SDS011;16389;50.126;8.450;2022-09-20T16:38:52;0.57;;;0.45;;
29412;SDS011;16389;50.126;8.450;2022-09-20T16:41:24;2.13;;;0.38;;
29412;SDS011;16389;50.126;8.450;2022-09-20T16:43:51;0.40;;;0.40;;
29412;SDS011;16389;50.126;8.450;2022-09-20T16:46:20;0.85;;;0.50;;
29412;SDS011;16389;50.126;8.450;2022-09-20T16:48:49;0.40;;;0.40;;
29412;SDS011;16389;50.126;8.450;2022-09-20T16:51:17;1.25;;;1.10;;
29412;SDS011;16389;50.126;8.450;2022-09-20T16:53:42;0.63;;;0.40;;
29412;SDS011;16389;50.126;8.450;2022-09-20T16:56:31;1.10;;;0.65;;
29412;SDS011;16389;50.126;8.450;2022-09-20T16:58:58;0.70;;;0.30;;
29412;SDS011;16389;50.126;8.450;2022-09-20T17:01:28;3.53;;;0.40;;
29412;SDS011;16389;50.126;8.450;2022-09-20T17:03:55;0.32;;;0.32;;
29412;SDS011;16389;50.126;8.450;2022-09-20T17:06:21;1.42;;;1.33;;
29412;SDS011;16389;50.126;8.450;2022-09-20T17:08:50;0.90;;;0.90;;
29412;SDS011;16389;50.126;8.450;2022-09-20T17:11:17;4.22;;;0.82;;
29412;SDS011;16389;50.126;8.450;2022-09-20T17:13:48;2.17;;;0.50;;
29412;SDS011;16389;50.126;8.450;2022-09-20T17:16:16;0.40;;;0.40;;
29412;SDS011;16389;50.126;8.450;2022-09-20T17:18:43;0.50;;;0.45;;
29412;SDS011;16389;50.126;8.450;2022-09-20T17:21:10;1.83;;;0.50;;
29412;SDS011;16389;50.126;8.450;2022-09-20T17:23:44;1.83;;;0.60;;
29412;SDS011;16389;50.126;8.450;2022-09-20T17:26:12;1.00;;;0.50;;
29412;SDS011;16389;50.126;8.450;2022-09-20T17:28:40;0.40;;;0.40;;
29412;SDS011;16389;50.126;8.450;2022-09-20T17:31:08;0.50;;;0.50;;
29412;SDS011;16389;50.126;8.450;2022-09-20T17:33:36;0.80;;;0.50;;
29412;SDS011;16389;50.126;8.450;2022-09-20T17:36:02;0.68;;;0.50;;
29412;SDS011;16389;50.126;8.450;2022-09-20T17:38:30;2.22;;;1.20;;
29412;SDS011;16389;50.126;8.450;2022-09-20T17:43:26;1.02;;;0.80;;
29412;SDS011;16389;50.126;8.450;2022-09-20T17:45:54;0.90;;;0.82;;
29412;SDS011;16389;50.126;8.450;2022-09-20T17:48:20;1.10;;;0.98;;
29412;SDS011;16389;50.126;8.450;2022-09-20T17:50:55;0.50;;;0.50;;
29412;SDS011;16389;50.126;8.450;2022-09-20T17:53:21;1.42;;;0.50;;
29412;SDS011;16389;50.126;8.450;2022-09-20T17:55:53;3.13;;;0.40;;
29412;SDS011;16389;50.126;8.450;2022-09-20T17:58:20;0.80;;;0.50;;
29412;SDS011;16389;50.126;8.450;2022-09-20T18:00:46;0.50;;;0.50;;
29412;SDS011;16389;50.126;8.450;2022-09-20T18:03:12;0.50;;;0.50;;
29412;SDS011;16389;50.126;8.450;2022-09-20T18:05:38;1.70;;;0.70;;
29412;SDS011;16389;50.126;8.450;2022-09-20T18:08:04;1.80;;;0.52;;
29412;SDS011;16389;50.126;8.450;2022-09-20T18:10:30;0.30;;;0.30;;
29412;SDS011;16389;50.126;8.450;2022-09-20T18:12:55;1.60;;;0.40;;
29412;SDS011;16389;50.126;8.450;2022-09-20T18:15:21;2.75;;;0.80;;
29412;SDS011;16389;50.126;8.450;2022-09-20T18:17:47;0.85;;;0.45;;
29412;SDS011;16389;50.126;8.450;2022-09-20T18:20:13;1.17;;;0.40;;
29412;SDS011;16389;50.126;8.450;2022-09-20T18:22:39;0.50;;;0.30;;
29412;SDS011;16389;50.126;8.450;2022-09-20T18:25:05;5.65;;;0.55;;
29412;SDS011;16389;50.126;8.450;2022-09-20T18:27:31;0.35;;;0.32;;
29412;SDS011;16389;50.126;8.450;2022-09-20T18:29:58;1.63;;;1.10;;
29412;SDS011;16389;50.126;8.450;2022-09-20T18:32:24;0.50;;;0.50;;
29412;SDS011;16389;50.126;8.450;2022-09-20T18:34:52;0.60;;;0.40;;
29412;SDS011;16389;50.126;8.450;2022-09-20T18:37:18;2.20;;;0.55;;
29412;SDS011;16389;50.126;8.450;2022-09-20T18:39:43;1.00;;;0.90;;
29412;SDS011;16389;50.126;8.450;2022-09-20T18:42:09;0.93;;;0.80;;
29412;SDS011;16389;50.126;8.450;2022-09-20T18:44:35;0.40;;;0.40;;
29412;SDS011;16389;50.126;8.450;2022-09-20T18:47:01;0.40;;;0.40;;
29412;SDS011;16389;50.126;8.450;2022-09-20T18:49:28;2.03;;;0.47;;
29412;SDS011;16389;50.126;8.450;2022-09-20T18:51:55;0.60;;;0.55;;
29412;SDS011;16389;50.126;8.450;2022-09-20T18:54:21;0.57;;;0.50;;
29412;SDS011;16389;50.126;8.450;2022-09-20T18:56:48;1.40;;;0.50;;
29412;SDS011;16389;50.126;8.450;2022-09-20T19:21:44;0.22;;;0.22;;
29412;SDS011;16389;50.126;8.450;2022-09-20T19:27:10;0.30;;;0.30;;
29412;SDS011;16389;50.126;8.450;2022-09-20T19:29:37;1.20;;;0.30;;
29412;SDS011;16389;50.126;8.450;2022-09-20T19:32:03;0.85;;;0.60;;
29412;SDS011;16389;50.126;8.450;2022-09-20T19:34:30;0.60;;;0.40;;
29412;SDS011;16389;50.126;8.450;2022-09-20T19:37:06;0.60;;;0.60;;
29412;SDS011;16389;50.126;8.450;2022-09-20T19:50:39;1.60;;;0.52;;
29412;SDS011;16389;50.126;8.450;2022-09-20T19:53:11;0.65;;;0.40;;
29412;SDS011;16389;50.126;8.450;2022-09-20T19:55:38;3.83;;;0.60;;
29412;SDS011;16389;50.126;8.450;2022-09-20T19:58:09;0.90;;;0.47;;
29412;SDS011;16389;50.126;8.450;2022-09-20T20:00:34;0.88;;;0.50;;
29412;SDS011;16389;50.126;8.450;2022-09-20T20:03:01;0.50;;;0.50;;
29412;SDS011;16389;50.126;8.450;2022-09-20T20:05:26;0.50;;;0.50;;
29412;SDS011;16389;50.126;8.450;2022-09-20T20:16:09;1.27;;;0.30;;
29412;SDS011;16389;50.126;8.450;2022-09-20T20:18:40;0.40;;;0.40;;
29412;SDS011;16389;50.126;8.450;2022-09-20T20:21:23;1.02;;;0.47;;
29412;SDS011;16389;50.126;8.450;2022-09-20T20:24:08;0.40;;;0.40;;
29412;SDS011;16389;50.126;8.450;2022-09-20T20:26:49;0.30;;;0.30;;
29412;SDS011;16389;50.126;8.450;2022-09-20T20:29:15;0.73;;;0.50;;
29412;SDS011;16389;50.126;8.450;2022-09-20T20:31:40;0.60;;;0.60;;
29412;SDS011;16389;50.126;8.450;2022-09-20T20:34:06;0.50;;;0.47;;
29412;SDS011;16389;50.126;8.450;2022-09-20T20:36:33;1.05;;;0.40;;
29412;SDS011;16389;50.126;8.450;2022-09-20T20:38:59;0.40;;;0.40;;
29412;SDS011;16389;50.126;8.450;2022-09-20T20:41:26;0.55;;;0.40;;
29412;SDS011;16389;50.126;8.450;2022-09-20T20:43:53;0.65;;;0.40;;
29412;SDS011;16389;50.126;8.450;2022-09-20T20:46:20;0.38;;;0.32;;
29412;SDS011;16389;50.126;8.450;2022-09-20T20:48:46;0.35;;;0.35;;
29412;SDS011;16389;50.126;8.450;2022-09-20T20:51:13;0.40;;;0.30;;
29412;SDS011;16389;50.126;8.450;2022-09-20T20:53:45;0.43;;;0.20;;
29412;SDS011;16389;50.126;8.450;2022-09-20T20:56:15;0.55;;;0.45;;
29412;SDS011;16389;50.126;8.450;2022-09-20T20:58:54;0.85;;;0.60;;
29412;SDS011;16389;50.126;8.450;2022-09-20T21:01:42;0.40;;;0.40;;
29412;SDS011;16389;50.126;8.450;2022-09-20T21:04:11;0.40;;;0.40;;
29412;SDS011;16389;50.126;8.450;2022-09-20T21:06:38;1.13;;;1.02;;
29412;SDS011;16389;50.126;8.450;2022-09-20T21:09:05;2.35;;;0.75;;
29412;SDS011;16389;50.126;8.450;2022-09-20T21:11:33;0.77;;;0.68;;
29412;SDS011;16389;50.126;8.450;2022-09-20T21:14:01;0.93;;;0.60;;
29412;SDS011;16389;50.126;8.450;2022-09-20T21:16:30;2.83;;;1.50;;
29412;SDS011;16389;50.126;8.450;2022-09-20T21:23:55;2.17;;;0.43;;
29412;SDS011;16389;50.126;8.450;2022-09-20T21:26:22;1.65;;;0.52;;
29412;SDS011;16389;50.126;8.450;2022-09-20T21:28:50;0.32;;;0.32;;
29412;SDS011;16389;50.126;8.450;2022-09-20T21:31:18;0.73;;;0.55;;
29412;SDS011;16389;50.126;8.450;2022-09-20T21:33:44;0.98;;;0.55;;
29412;SDS011;16389;50.126;8.450;2022-09-20T21:36:11;0.60;;;0.50;;
29412;SDS011;16389;50.126;8.450;2022-09-20T21:38:42;0.40;;;0.40;;